createdAt,value
2018-09-25T00:01:47.781Z,62.90
2018-09-25T00:12:06.476Z,63.00
2018-09-25T00:17:16.157Z,63.10
2018-09-25T00:22:25.814Z,63.20
2018-09-25T00:25:00.713Z,63.20
2018-09-25T00:32:45.341Z,63.20
2018-09-25T00:37:54.885Z,63.30
2018-09-25T00:40:29.761Z,63.20
2018-09-25T00:45:39.386Z,63.30
2018-09-25T00:48:14.376Z,63.30
2018-09-25T00:53:23.947Z,63.30
2018-09-25T01:06:17.066Z,63.20
2018-09-25T01:11:26.665Z,63.20
2018-09-25T01:14:02.042Z,63.20
2018-09-25T01:16:37.248Z,63.10
2018-09-25T01:19:12.309Z,63.10
2018-09-25T01:21:47.711Z,63.10
2018-09-25T01:24:22.729Z,63.10
2018-09-25T01:26:57.587Z,63.00
2018-09-25T01:32:06.944Z,63.00
2018-09-25T01:37:16.393Z,63.00
2018-09-25T01:42:26.079Z,63.00
2018-09-25T01:45:01.207Z,63.00
2018-09-25T01:50:10.616Z,62.90
2018-09-25T01:52:45.577Z,62.80
2018-09-25T01:57:55.148Z,62.80
2018-09-25T02:00:30.105Z,62.70
2018-09-25T02:03:10.495Z,62.70
2018-09-25T02:08:20.121Z,62.70
2018-09-25T02:10:55.125Z,62.70
2018-09-25T02:16:05.249Z,62.80
2018-09-25T02:21:14.723Z,62.70
2018-09-25T02:28:58.929Z,62.70
2018-09-25T02:36:43.257Z,62.70
2018-09-25T02:39:18.175Z,62.80
2018-09-25T02:44:27.680Z,62.80
2018-09-25T02:47:02.670Z,62.90
2018-09-25T02:52:12.188Z,62.90
2018-09-25T02:59:56.700Z,62.90
2018-09-25T03:02:31.749Z,63.00
2018-09-25T03:07:42.054Z,62.90
2018-09-25T03:12:51.665Z,63.00
2018-09-25T03:25:45.129Z,63.00
2018-09-25T03:30:54.554Z,63.00
2018-09-25T03:33:29.396Z,62.90
2018-09-25T03:36:04.257Z,62.80
2018-09-25T03:38:39.282Z,62.90
2018-09-25T03:43:48.907Z,62.90
2018-09-25T04:01:52.039Z,62.60
2018-09-25T04:04:26.926Z,62.60
2018-09-25T04:09:36.376Z,62.40
2018-09-25T04:17:20.878Z,62.40
2018-09-25T04:19:55.860Z,62.40
2018-09-25T04:27:40.110Z,62.40
2018-09-25T04:32:49.734Z,62.50
2018-09-25T04:35:24.598Z,62.40
2018-09-25T04:37:59.581Z,62.40
2018-09-25T04:40:34.562Z,62.50
2018-09-25T04:45:44.153Z,62.50
2018-09-25T04:48:19.188Z,62.60
2018-09-25T04:53:28.696Z,62.60
2018-09-25T05:01:12.933Z,62.70
2018-09-25T05:03:47.854Z,62.80
2018-09-25T05:08:57.645Z,62.80
2018-09-25T05:16:41.903Z,62.80
2018-09-25T05:19:16.856Z,62.90
2018-09-25T05:34:44.768Z,62.80
2018-09-25T05:37:19.785Z,62.80
2018-09-25T05:39:54.666Z,62.70
2018-09-25T05:47:39.310Z,62.40
2018-09-25T05:50:14.341Z,62.30
2018-09-25T05:55:23.968Z,62.10
2018-09-25T05:57:58.982Z,62.00
2018-09-25T06:03:08.510Z,61.70
2018-09-25T06:05:43.432Z,61.40
2018-09-25T06:10:53.526Z,61.10
2018-09-25T06:18:37.513Z,60.60
2018-09-25T06:21:12.332Z,60.30
2018-09-25T06:26:21.841Z,60.10
2018-09-25T06:34:06.379Z,59.40
2018-09-25T06:36:41.409Z,59.30
2018-09-25T06:41:51.413Z,59.10
2018-09-25T06:47:00.907Z,58.90
2018-09-25T06:52:10.545Z,58.40
2018-09-25T06:54:45.727Z,57.80
2018-09-25T06:59:55.276Z,56.40
2018-09-25T07:02:30.279Z,56.40
2018-09-25T07:10:14.759Z,55.50
2018-09-25T07:23:07.878Z,54.80
2018-09-25T07:25:42.783Z,54.50
2018-09-25T07:30:52.652Z,54.50
2018-09-25T07:43:47.015Z,52.70
2018-09-25T07:51:31.318Z,53.10
2018-09-25T07:54:06.349Z,53.00
2018-09-25T07:59:16.244Z,52.30
2018-09-25T08:07:00.937Z,51.30
2018-09-25T08:09:35.854Z,51.40
2018-09-25T08:12:10.852Z,51.10
2018-09-25T08:14:45.891Z,51.20
2018-09-25T08:17:20.749Z,51.20
2018-09-25T08:22:30.295Z,51.30
2018-09-25T08:25:05.282Z,51.20
2018-09-25T08:30:14.709Z,50.30
2018-09-25T08:37:59.291Z,50.60
2018-09-25T08:40:34.182Z,51.00
2018-09-25T08:43:09.185Z,51.50
2018-09-25T08:53:28.493Z,52.00
2018-09-25T08:56:03.714Z,52.20
2018-09-25T09:06:22.434Z,52.20
2018-09-25T09:08:57.429Z,52.20
2018-09-25T09:16:41.430Z,52.20
2018-09-25T09:27:00.539Z,52.30
2018-09-25T09:32:10.154Z,52.30
2018-09-25T09:34:45.054Z,52.30
2018-09-25T09:37:20.750Z,52.30
2018-09-25T09:45:05.021Z,50.70
2018-09-25T09:50:14.670Z,48.90
2018-09-25T09:52:49.639Z,49.20
2018-09-25T09:57:59.508Z,49.90
2018-09-25T10:03:09.413Z,50.40
2018-09-25T10:05:44.268Z,50.40
2018-09-25T10:10:53.826Z,50.70
2018-09-25T10:13:28.716Z,50.90
2018-09-25T10:18:38.526Z,51.00
2018-09-25T10:44:26.441Z,50.30
2018-09-25T10:49:36.136Z,50.90
2018-09-25T10:57:20.722Z,51.50
2018-09-25T11:12:49.667Z,52.20
2018-09-25T11:17:59.392Z,52.30
2018-09-25T11:20:34.384Z,52.40
2018-09-25T11:25:43.779Z,52.50
2018-09-25T11:28:18.784Z,52.70
2018-09-25T11:33:28.308Z,52.80
2018-09-25T11:36:03.170Z,52.90
2018-09-25T11:41:13.149Z,53.10
2018-09-25T11:48:57.291Z,53.20
2018-09-25T11:51:32.241Z,53.20
2018-09-25T11:56:41.924Z,53.20
2018-09-25T11:59:16.939Z,53.30
2018-09-25T12:04:26.743Z,53.00
2018-09-25T12:09:36.657Z,52.90
2018-09-25T12:12:11.540Z,53.00
2018-09-25T12:14:46.454Z,53.10
2018-09-25T12:17:21.510Z,54.30
2018-09-25T12:22:30.817Z,54.90
2018-09-25T12:25:05.761Z,54.80
2018-09-25T12:32:49.830Z,54.90
2018-09-25T12:38:00.415Z,54.90
2018-09-25T12:45:44.335Z,55.00
2018-09-25T13:01:13.168Z,55.20
2018-09-25T13:08:57.909Z,54.20
2018-09-25T13:16:42.136Z,49.20
2018-09-25T13:27:02.132Z,51.10
2018-09-25T13:29:37.013Z,51.60
2018-09-25T13:34:47.313Z,51.50
2018-09-25T13:39:57.705Z,52.10
2018-09-25T13:45:07.210Z,52.20
2018-09-25T13:47:42.078Z,52.40
2018-09-25T13:55:26.647Z,52.50
2018-09-25T14:00:36.132Z,52.50
2018-09-25T14:03:11.263Z,52.40
2018-09-25T14:08:20.861Z,52.40
2018-09-25T14:10:55.920Z,52.40
2018-09-25T14:16:05.556Z,52.60
2018-09-25T14:23:49.886Z,52.40
2018-09-25T14:28:59.399Z,52.20
2018-09-25T14:34:09.008Z,52.40
2018-09-25T14:36:43.888Z,52.70
2018-09-25T14:39:18.713Z,52.90
2018-09-25T14:44:28.455Z,53.20
2018-09-25T14:47:03.430Z,53.40
2018-09-25T14:52:13.115Z,53.70
2018-09-25T14:57:23.036Z,53.90
2018-09-25T15:12:50.968Z,54.60
2018-09-25T15:18:00.710Z,54.70
2018-09-25T15:23:10.256Z,54.90
2018-09-25T15:25:45.128Z,54.90
2018-09-25T15:30:54.538Z,55.60
2018-09-25T15:33:29.491Z,55.70
2018-09-25T15:41:13.574Z,56.10
2018-09-25T15:48:57.688Z,56.20
2018-09-25T15:51:32.705Z,56.20
2018-09-25T15:56:42.312Z,56.30
2018-09-25T16:09:35.452Z,56.30
2018-09-25T16:19:56.149Z,56.50
2018-09-25T16:27:41.208Z,56.80
2018-09-25T16:30:16.086Z,56.80
2018-09-25T16:32:50.987Z,56.80
2018-09-25T16:35:25.989Z,56.80
2018-09-25T16:38:00.931Z,56.90
2018-09-25T16:43:10.520Z,57.00
2018-09-25T16:45:45.416Z,57.00
2018-09-25T16:50:55.121Z,57.10
2018-09-25T17:03:48.344Z,56.80
2018-09-25T17:19:17.036Z,57.20
2018-09-25T17:27:01.252Z,57.60
2018-09-25T17:29:36.254Z,57.50
2018-09-25T17:34:45.914Z,57.70
2018-09-25T17:42:30.120Z,57.80
2018-09-25T17:50:14.177Z,58.10
2018-09-25T17:52:49.048Z,58.10
2018-09-25T17:57:58.753Z,58.20
2018-09-25T18:00:33.654Z,58.30
2018-09-25T18:05:43.253Z,58.50
2018-09-25T18:10:59.934Z,58.60
2018-09-25T18:13:34.844Z,58.60
2018-09-25T18:16:09.726Z,58.80
2018-09-25T18:18:44.735Z,58.90
2018-09-25T18:26:30.523Z,58.80
2018-09-25T18:29:05.370Z,59.10
2018-09-25T18:31:40.266Z,59.20
2018-09-25T18:34:15.163Z,59.10
2018-09-25T18:41:59.413Z,59.30
2018-09-25T18:52:19.841Z,59.40
2018-09-25T18:57:29.740Z,59.40
2018-09-25T19:02:40.184Z,59.60
2018-09-25T19:07:50.141Z,59.70
2018-09-25T19:10:25.018Z,59.80
2018-09-25T19:15:34.513Z,59.90
2018-09-25T19:20:43.962Z,59.90
2018-09-25T19:25:53.842Z,60.00
2018-09-25T19:31:03.833Z,60.20
2018-09-25T19:33:38.704Z,60.40
2018-09-25T19:41:22.968Z,60.50
2018-09-25T19:49:07.289Z,60.60
2018-09-25T19:56:52.059Z,61.10
2018-09-25T20:02:01.448Z,61.20
2018-09-25T20:07:11.786Z,61.20
2018-09-25T20:09:46.811Z,61.30
2018-09-25T20:12:21.794Z,61.50
2018-09-25T20:20:06.264Z,61.50
2018-09-25T20:22:41.165Z,61.70
2018-09-25T20:27:50.570Z,61.50
2018-09-25T20:30:25.380Z,61.70
2018-09-25T20:35:35.188Z,61.90
2018-09-25T20:48:28.197Z,62.00
2018-09-25T20:56:12.809Z,62.60
2018-09-25T21:01:22.355Z,62.60
2018-09-25T21:11:41.381Z,62.60
2018-09-25T21:16:51.165Z,62.80
2018-09-25T21:27:10.017Z,62.80
2018-09-25T21:29:45.007Z,62.90
2018-09-25T21:32:19.891Z,62.90
2018-09-25T21:40:04.689Z,63.10
2018-09-25T21:47:49.126Z,63.00
2018-09-25T22:00:42.354Z,63.20
2018-09-25T22:03:17.224Z,63.10
2018-09-25T22:05:52.085Z,63.20
2018-09-25T22:11:02.117Z,63.00
2018-09-25T22:18:46.342Z,63.10
2018-09-25T22:21:21.209Z,63.10
2018-09-25T22:26:30.826Z,63.10
2018-09-25T22:31:40.964Z,63.10
2018-09-25T22:34:15.860Z,63.20
2018-09-25T22:39:25.729Z,63.20
2018-09-25T22:42:00.709Z,63.10
2018-09-25T22:54:55.277Z,63.10
2018-09-25T23:02:39.541Z,63.20
2018-09-25T23:07:49.581Z,63.20
2018-09-25T23:10:24.385Z,63.40
2018-09-25T23:12:59.370Z,63.30
2018-09-25T23:23:17.918Z,63.40
2018-09-25T23:25:52.993Z,63.40
2018-09-25T23:28:28.035Z,63.40
2018-09-25T23:36:12.761Z,63.50
2018-09-25T23:43:57.081Z,63.50
2018-09-25T23:46:35.598Z,63.70
2018-09-25T23:49:10.703Z,63.70
2018-09-25T23:54:28.081Z,63.50
